Traun, Austria
Current Conditions -  °F | °C
As of 10:20 PM on Monday 26 Jan 2015 (Local Time) from LOWL Reporting Station
Scattered Clouds Scattered Clouds  
Wind Chill: 27°   Ceiling: Unl
Heat Index: 27°   Visibility: 2.1mi
Dew Point: 27°   Wind: 1mph
Humidity: 100%   Direction: NA
Pressure: 30.12"   Gusts: NA
Location:  48.23°N, 14.24°E
Report Text: LOWL 262020Z VRB01KT 3500 0800SE R26/0400D FZBCFG FEW080 SCT210 M03/M03 Q1020 R08/590194 TEMPO 0500
Loading
Personal Weather Stations






























Interactive Weather Map New forecast layout! Learn more

10-Day Weather Forecast

Advertisements
Track Severe Weather on mobile